createdAt,value
2023-04-22T00:04:21.830Z,96372.41
2023-04-22T00:09:17.036Z,96368.84
2023-04-22T00:14:10.483Z,96369.50
2023-04-22T00:19:03.999Z,96364.81
2023-04-22T00:23:57.518Z,96362.25
2023-04-22T00:28:52.334Z,96368.69
2023-04-22T00:33:45.721Z,96368.03
2023-04-22T00:38:40.783Z,96361.44
2023-04-22T00:43:34.179Z,96358.94
2023-04-22T00:48:30.785Z,96354.72
2023-04-22T00:53:24.169Z,96362.94
2023-04-22T00:58:20.196Z,96362.94
2023-04-22T01:03:14.632Z,96375.53
2023-04-22T01:08:09.519Z,96364.94
2023-04-22T01:13:02.931Z,96368.69
2023-04-22T01:17:57.536Z,96379.53
2023-04-22T01:22:56.476Z,96372.31
2023-04-22T01:27:51.715Z,96376.56
2023-04-22T01:32:46.036Z,96377.31
2023-04-22T01:37:40.351Z,96378.97
2023-04-22T01:42:34.447Z,96381.22
2023-04-22T01:47:29.119Z,96382.06
2023-04-22T01:52:22.957Z,96374.31
2023-04-22T01:57:16.531Z,96373.59
2023-04-22T02:02:10.175Z,96383.66
2023-04-22T02:07:04.957Z,96376.84
2023-04-22T02:11:58.233Z,96366.28
2023-04-22T02:16:51.874Z,96366.38
2023-04-22T02:21:45.434Z,96374.84
2023-04-22T02:26:40.115Z,96371.66
2023-04-22T02:31:33.567Z,96376.75
2023-04-22T02:36:27.761Z,96385.19
2023-04-22T02:41:21.142Z,96385.91
2023-04-22T02:46:17.173Z,96378.44
2023-04-22T02:51:10.542Z,96374.25
2023-04-22T02:56:04.013Z,96368.81
2023-04-22T03:00:58.167Z,96369.16
2023-04-22T03:05:53.060Z,96372.38
2023-04-22T03:10:46.367Z,96373.94
2023-04-22T03:15:41.647Z,96371.19
2023-04-22T03:20:35.508Z,96379.50
2023-04-22T03:25:30.203Z,96387.09
2023-04-22T03:30:24.026Z,96382.47
2023-04-22T03:35:17.552Z,96388.88
2023-04-22T03:40:13.681Z,96391.75
2023-04-22T03:45:09.769Z,96397.31
2023-04-22T03:50:03.201Z,96385.19
2023-04-22T03:54:56.516Z,96392.44
2023-04-22T03:59:52.015Z,96400.13
2023-04-22T04:04:47.293Z,96418.66
2023-04-22T04:09:41.407Z,96415.50
2023-04-22T04:14:35.075Z,96411.38
2023-04-22T04:19:28.460Z,96418.84
2023-04-22T04:24:23.147Z,96406.44
2023-04-22T04:29:16.590Z,96410.81
2023-04-22T04:34:09.876Z,96427.53
2023-04-22T04:39:04.237Z,96419.13
2023-04-22T04:44:00.511Z,96421.50
2023-04-22T04:48:54.070Z,96420.06
2023-04-22T04:53:47.407Z,96421.75
2023-04-22T04:58:40.876Z,96429.28
2023-04-22T05:03:36.017Z,96423.75
2023-04-22T05:08:29.353Z,96427.81
2023-04-22T05:13:22.762Z,96424.16
2023-04-22T05:18:16.090Z,96429.63
2023-04-22T05:23:10.766Z,96424.63
2023-04-22T05:28:04.047Z,96420.63
2023-04-22T05:33:08.784Z,96427.03
2023-04-22T05:38:03.071Z,96438.47
2023-04-22T05:42:58.689Z,96434.66
2023-04-22T05:47:52.115Z,96424.78
2023-04-22T05:52:45.503Z,96420.56
2023-04-22T05:57:39.031Z,96425.09
2023-04-22T06:02:33.794Z,96421.97
2023-04-22T06:07:27.336Z,96414.94
2023-04-22T06:12:21.132Z,96417.44
2023-04-22T06:17:14.525Z,96416.88
2023-04-22T06:22:09.289Z,96404.44
2023-04-22T06:27:03.112Z,96399.69
2023-04-22T06:31:56.941Z,96409.56
2023-04-22T06:36:51.267Z,96403.16
2023-04-22T06:41:45.960Z,96410.53
2023-04-22T06:46:42.312Z,96412.94
2023-04-22T06:51:35.843Z,96440.22
2023-04-22T06:56:29.266Z,96444.25
2023-04-22T07:01:24.030Z,96444.69
2023-04-22T07:06:17.645Z,96451.81
2023-04-22T07:11:14.886Z,96440.94
2023-04-22T07:16:08.417Z,96446.44
2023-04-22T07:21:03.392Z,96456.28
2023-04-22T07:25:56.857Z,96467.41
2023-04-22T07:30:55.350Z,96471.88
2023-04-22T07:35:49.200Z,96483.94
2023-04-22T07:40:43.884Z,96486.94
2023-04-22T07:45:37.254Z,96489.88
2023-04-22T07:50:30.786Z,96490.88
2023-04-22T07:55:24.069Z,96489.41
2023-04-22T08:00:19.317Z,96490.38
2023-04-22T08:05:12.808Z,96489.63
2023-04-22T08:10:08.432Z,96492.13
2023-04-22T08:15:01.802Z,96506.22
2023-04-22T08:19:56.526Z,96509.09
2023-04-22T08:24:49.883Z,96506.09
2023-04-22T08:29:43.458Z,96497.75
2023-04-22T08:34:37.336Z,96501.63
2023-04-22T08:39:32.230Z,96497.94
2023-04-22T08:44:26.930Z,96510.00
2023-04-22T08:49:22.314Z,96507.41
2023-04-22T08:54:16.310Z,96514.38
2023-04-22T08:59:12.375Z,96508.13
2023-04-22T09:04:07.576Z,96494.44
2023-04-22T09:09:01.935Z,96490.66
2023-04-22T09:13:56.058Z,96488.44
2023-04-22T09:18:52.076Z,96496.31
2023-04-22T09:23:49.444Z,96481.91
2023-04-22T09:28:51.943Z,96481.66
2023-04-22T09:33:51.860Z,96484.06
2023-04-22T09:38:55.355Z,96489.25
2023-04-22T09:43:48.824Z,96475.69
2023-04-22T09:48:45.419Z,96467.28
2023-04-22T09:53:40.152Z,96463.16
2023-04-22T09:58:33.491Z,96449.00
2023-04-22T10:03:26.887Z,96441.19
2023-04-22T10:08:20.192Z,96436.03
2023-04-22T10:13:15.029Z,96440.34
2023-04-22T10:18:13.861Z,96440.13
2023-04-22T10:23:14.538Z,96443.59
2023-04-22T10:28:10.561Z,96433.81
2023-04-22T10:33:40.127Z,96437.66
2023-04-22T10:38:36.225Z,96422.00
2023-04-22T10:43:43.615Z,96423.16
2023-04-22T10:48:51.261Z,96420.31
2023-04-22T10:53:46.112Z,96408.38
2023-04-22T10:58:39.748Z,96408.50
2023-04-22T11:03:33.390Z,96412.09
2023-04-22T11:08:29.912Z,96417.06
2023-04-22T11:13:23.911Z,96417.72
2023-04-22T11:18:21.953Z,96421.88
2023-04-22T11:23:21.039Z,96401.88
2023-04-22T11:28:15.751Z,96405.13
2023-04-22T11:33:09.312Z,96405.78
2023-04-22T11:38:04.581Z,96396.19
2023-04-22T11:42:59.255Z,96404.53
2023-04-22T11:47:55.396Z,96391.63
2023-04-22T11:52:52.611Z,96378.38
2023-04-22T11:57:53.764Z,96385.53
2023-04-22T12:03:00.618Z,96391.69
2023-04-22T12:07:54.188Z,96377.19
2023-04-22T12:12:47.504Z,96382.13
2023-04-22T12:17:41.219Z,96385.97
2023-04-22T12:22:36.028Z,96378.84
2023-04-22T12:27:29.529Z,96382.31
2023-04-22T12:32:24.962Z,96372.69
2023-04-22T12:37:19.656Z,96391.69
2023-04-22T12:42:14.446Z,96402.38
2023-04-22T12:47:09.825Z,96389.31
2023-04-22T12:52:03.163Z,96382.69
2023-04-22T12:56:57.900Z,96395.69
2023-04-22T13:01:52.794Z,96399.19
2023-04-22T13:06:46.230Z,96401.00
2023-04-22T13:11:39.648Z,96406.00
2023-04-22T13:16:32.993Z,96391.13
2023-04-22T13:21:28.393Z,96392.84
2023-04-22T13:26:22.471Z,96383.63
2023-04-22T13:31:15.832Z,96373.88
2023-04-22T13:36:11.173Z,96365.41
2023-04-22T13:41:06.188Z,96346.59
2023-04-22T13:45:59.668Z,96349.22
2023-04-22T13:50:52.893Z,96354.84
2023-04-22T13:55:46.269Z,96337.63
2023-04-22T14:00:40.940Z,96334.88
2023-04-22T14:05:34.309Z,96331.91
2023-04-22T14:10:28.697Z,96332.69
2023-04-22T14:15:22.264Z,96331.03
2023-04-22T14:20:16.963Z,96328.75
2023-04-22T14:25:11.180Z,96334.88
2023-04-22T14:30:05.978Z,96343.44
2023-04-22T14:34:59.390Z,96344.75
2023-04-22T14:39:54.136Z,96362.06
2023-04-22T14:44:47.512Z,96364.50
2023-04-22T14:49:41.145Z,96373.94
2023-04-22T14:54:34.825Z,96369.03
2023-04-22T14:59:29.633Z,96358.19
2023-04-22T15:04:23.359Z,96374.38
2023-04-22T15:09:16.950Z,96382.63
2023-04-22T15:14:10.265Z,96408.91
2023-04-22T15:19:04.938Z,96400.88
2023-04-22T15:23:58.314Z,96413.78
2023-04-22T15:28:51.834Z,96413.22
2023-04-22T15:33:45.125Z,96413.81
2023-04-22T15:38:40.096Z,96424.00
2023-04-22T15:43:33.824Z,96423.19
2023-04-22T15:48:27.246Z,96423.41
2023-04-22T15:53:20.588Z,96427.72
2023-04-22T15:58:15.278Z,96429.06
2023-04-22T16:03:08.938Z,96426.94
2023-04-22T16:08:03.627Z,96420.66
2023-04-22T16:12:57.079Z,96433.25
2023-04-22T16:17:51.928Z,96450.97
2023-04-22T16:22:45.347Z,96440.03
2023-04-22T16:27:38.699Z,96439.38
2023-04-22T16:32:32.126Z,96438.50
2023-04-22T16:37:27.461Z,96438.69
2023-04-22T16:42:20.821Z,96448.28
2023-04-22T16:47:14.170Z,96433.03
2023-04-22T16:52:07.778Z,96431.66
2023-04-22T16:57:02.815Z,96415.47
2023-04-22T17:01:56.245Z,96416.78
2023-04-22T17:06:49.567Z,96413.97
2023-04-22T17:11:43.072Z,96413.78
2023-04-22T17:16:38.415Z,96416.59
2023-04-22T17:21:31.744Z,96429.31
2023-04-22T17:26:25.247Z,96420.69
2023-04-22T17:31:19.312Z,96412.09
2023-04-22T17:36:14.092Z,96412.41
2023-04-22T17:41:07.756Z,96404.59
2023-04-22T17:46:01.084Z,96410.19
2023-04-22T17:50:54.759Z,96423.88
2023-04-22T17:55:49.583Z,96427.84
2023-04-22T18:00:42.993Z,96432.63
2023-04-22T18:05:42.931Z,96436.38
2023-04-22T18:10:36.353Z,96441.31
2023-04-22T18:15:31.115Z,96448.75
2023-04-22T18:20:24.640Z,96451.19
2023-04-22T18:25:18.024Z,96452.16
2023-04-22T18:30:12.279Z,96453.97
2023-04-22T18:35:09.156Z,96455.75
2023-04-22T18:40:02.701Z,96455.75
2023-04-22T18:44:56.209Z,96458.84
2023-04-22T18:49:49.684Z,96464.94
2023-04-22T18:54:44.620Z,96455.84
2023-04-22T18:59:37.994Z,96451.47
2023-04-22T19:04:31.661Z,96451.31
2023-04-22T19:09:25.256Z,96457.75
2023-04-22T19:14:20.001Z,96459.41
2023-04-22T19:19:13.299Z,96458.41
2023-04-22T19:24:07.496Z,96446.03
2023-04-22T19:29:03.823Z,96472.91
2023-04-22T19:33:58.636Z,96456.84
2023-04-22T19:38:54.323Z,96462.75
2023-04-22T19:43:47.983Z,96463.38
2023-04-22T19:48:49.072Z,96459.22
2023-04-22T19:53:44.852Z,96446.78
2023-04-22T19:58:41.029Z,96450.03
2023-04-22T20:03:38.308Z,96454.34
2023-04-22T20:08:33.044Z,96460.00
2023-04-22T20:13:31.154Z,96454.03
2023-04-22T20:18:27.001Z,96453.50
2023-04-22T20:23:26.440Z,96449.19
2023-04-22T20:28:22.699Z,96451.16
2023-04-22T20:33:18.423Z,96457.69
2023-04-22T20:38:19.398Z,96462.31
2023-04-22T20:43:18.295Z,96463.28
2023-04-22T20:48:11.725Z,96455.97
2023-04-22T20:53:09.584Z,96464.19
2023-04-22T20:58:03.595Z,96462.53
2023-04-22T21:02:57.775Z,96460.88
2023-04-22T21:07:53.698Z,96452.66
2023-04-22T21:12:49.343Z,96459.28
2023-04-22T21:17:51.683Z,96452.88
2023-04-22T21:22:47.326Z,96462.53
2023-04-22T21:27:41.349Z,96462.75
2023-04-22T21:32:40.652Z,96458.91
2023-04-22T21:37:34.424Z,96466.47
2023-04-22T21:42:31.186Z,96460.31
2023-04-22T21:47:24.566Z,96446.00
2023-04-22T21:52:21.504Z,96462.84
2023-04-22T21:57:17.872Z,96446.44
2023-04-22T22:02:11.261Z,96449.94
2023-04-22T22:07:04.661Z,96429.09
2023-04-22T22:12:01.172Z,96427.66
2023-04-22T22:16:57.482Z,96441.00
2023-04-22T22:21:51.318Z,96446.69
2023-04-22T22:26:45.465Z,96431.59
2023-04-22T22:31:40.118Z,96448.53
2023-04-22T22:36:33.736Z,96441.88
2023-04-22T22:41:26.998Z,96442.28
2023-04-22T22:46:20.747Z,96448.03
2023-04-22T22:51:18.362Z,96445.00
2023-04-22T22:56:12.093Z,96448.47
2023-04-22T23:01:05.946Z,96447.88
2023-04-22T23:05:59.635Z,96463.97
2023-04-22T23:10:54.416Z,96448.75
2023-04-22T23:15:47.822Z,96452.78
2023-04-22T23:20:42.917Z,96454.00
2023-04-22T23:25:37.181Z,96451.28
2023-04-22T23:30:32.906Z,96455.13
2023-04-22T23:35:27.518Z,96451.81
2023-04-22T23:40:21.359Z,96446.13
2023-04-22T23:45:15.565Z,96438.22
2023-04-22T23:50:14.041Z,96437.38
2023-04-22T23:55:10.331Z,96454.00
